sensor_id;sensor_type;location;lat;lon;timestamp;pressure;altitude;pressure_sealevel;temperature;humidity
54122;BME280;40029;58.708;50.190;2023-06-04T00:02:10;99291.63;;;20.00;39.57
54122;BME280;40029;58.708;50.190;2023-06-04T00:05:00;99284.50;;;20.01;39.51
54122;BME280;40029;58.708;50.190;2023-06-04T00:07:31;99286.22;;;20.02;39.51
54122;BME280;40029;58.708;50.190;2023-06-04T00:10:04;99320.19;;;20.27;39.58
54122;BME280;40029;58.708;50.190;2023-06-04T00:12:36;99273.78;;;19.92;39.67
54122;BME280;40029;58.708;50.190;2023-06-04T00:15:07;99309.03;;;20.23;39.70
54122;BME280;40029;58.708;50.190;2023-06-04T00:17:38;99254.28;;;19.93;39.53
54122;BME280;40029;58.708;50.190;2023-06-04T00:20:10;99304.25;;;20.17;39.64
54122;BME280;40029;58.708;50.190;2023-06-04T00:23:00;99282.00;;;19.99;39.77
54122;BME280;40029;58.708;50.190;2023-06-04T00:25:31;99309.91;;;20.13;39.47
54122;BME280;40029;58.708;50.190;2023-06-04T00:28:03;99272.22;;;19.90;39.77
54122;BME280;40029;58.708;50.190;2023-06-04T00:30:34;99313.41;;;20.13;39.84
54122;BME280;40029;58.708;50.190;2023-06-04T00:33:05;99311.28;;;20.07;40.02
54122;BME280;40029;58.708;50.190;2023-06-04T00:35:37;99265.91;;;19.81;40.18
54122;BME280;40029;58.708;50.190;2023-06-04T00:38:27;99273.00;;;19.81;40.21
54122;BME280;40029;58.708;50.190;2023-06-04T00:40:58;99268.53;;;19.81;40.30
54122;BME280;40029;58.708;50.190;2023-06-04T00:43:29;99314.19;;;20.04;40.00
54122;BME280;40029;58.708;50.190;2023-06-04T00:46:02;99307.75;;;19.97;40.19
54122;BME280;40029;58.708;50.190;2023-06-04T00:48:53;99284.84;;;19.86;40.16
54122;BME280;40029;58.708;50.190;2023-06-04T00:51:42;99270.00;;;19.74;40.90
54122;BME280;40029;58.708;50.190;2023-06-04T00:54:14;99280.88;;;19.71;40.61
54122;BME280;40029;58.708;50.190;2023-06-04T00:56:47;99310.44;;;19.86;40.61
54122;BME280;40029;58.708;50.190;2023-06-04T00:59:19;99281.22;;;19.66;40.72
54122;BME280;40029;58.708;50.190;2023-06-04T01:04:39;99321.91;;;19.96;41.21
54122;BME280;40029;58.708;50.190;2023-06-04T01:07:14;99301.94;;;19.82;40.89
54122;BME280;40029;58.708;50.190;2023-06-04T01:09:46;99274.41;;;19.64;40.94
54122;BME280;40029;58.708;50.190;2023-06-04T01:12:17;99281.56;;;19.73;40.98
54122;BME280;40029;58.708;50.190;2023-06-04T01:14:49;99319.56;;;19.93;41.03
54122;BME280;40029;58.708;50.190;2023-06-04T01:17:43;99274.47;;;19.73;41.05
54122;BME280;40029;58.708;50.190;2023-06-04T01:20:37;99259.44;;;19.74;41.35
54122;BME280;40029;58.708;50.190;2023-06-04T01:23:34;99308.00;;;19.94;41.27
54122;BME280;40029;58.708;50.190;2023-06-04T01:26:09;99261.63;;;19.69;41.15
54122;BME280;40029;58.708;50.190;2023-06-04T01:28:42;99268.69;;;19.80;40.98
54122;BME280;40029;58.708;50.190;2023-06-04T01:31:15;99299.09;;;19.95;41.27
54122;BME280;40029;58.708;50.190;2023-06-04T01:34:07;99261.31;;;19.83;41.01
54122;BME280;40029;58.708;50.190;2023-06-04T01:36:38;99250.19;;;19.80;41.29
54122;BME280;40029;58.708;50.190;2023-06-04T01:39:09;99277.94;;;19.95;40.95
54122;BME280;40029;58.708;50.190;2023-06-04T01:41:41;99245.44;;;19.83;40.89
54122;BME280;40029;58.708;50.190;2023-06-04T01:44:12;99241.72;;;19.86;40.80
54122;BME280;40029;58.708;50.190;2023-06-04T01:46:43;99239.41;;;19.92;40.65
54122;BME280;40029;58.708;50.190;2023-06-04T01:49:14;99241.66;;;19.97;40.56
54122;BME280;40029;58.708;50.190;2023-06-04T01:51:45;99237.38;;;20.06;40.23
54122;BME280;40029;58.708;50.190;2023-06-04T01:54:17;99285.41;;;20.32;40.25
54122;BME280;40029;58.708;50.190;2023-06-04T01:56:48;99252.19;;;20.18;40.04
54122;BME280;40029;58.708;50.190;2023-06-04T01:59:37;99244.69;;;20.23;40.00
54122;BME280;40029;58.708;50.190;2023-06-04T02:02:09;99246.69;;;20.31;39.76
54122;BME280;40029;58.708;50.190;2023-06-04T02:04:40;99240.41;;;20.32;39.89
54122;BME280;40029;58.708;50.190;2023-06-04T02:07:16;99261.97;;;20.48;39.80
54122;BME280;40029;58.708;50.190;2023-06-04T02:09:51;99224.13;;;20.27;39.94
54122;BME280;40029;58.708;50.190;2023-06-04T02:13:00;99255.28;;;20.54;39.83
54122;BME280;40029;58.708;50.190;2023-06-04T02:15:34;99250.00;;;20.54;39.67
54122;BME280;40029;58.708;50.190;2023-06-04T02:18:23;99272.78;;;20.76;39.23
54122;BME280;40029;58.708;50.190;2023-06-04T02:20:56;99280.22;;;20.91;39.43
54122;BME280;40029;58.708;50.190;2023-06-04T02:23:28;99239.03;;;20.68;39.54
54122;BME280;40029;58.708;50.190;2023-06-04T02:25:59;99274.91;;;21.01;39.22
54122;BME280;40029;58.708;50.190;2023-06-04T02:28:30;99261.25;;;20.96;39.31
54122;BME280;40029;58.708;50.190;2023-06-04T02:31:20;99272.28;;;21.11;39.42
54122;BME280;40029;58.708;50.190;2023-06-04T02:33:52;99224.19;;;20.96;39.04
54122;BME280;40029;58.708;50.190;2023-06-04T02:36:23;99224.59;;;21.01;38.99
54122;BME280;40029;58.708;50.190;2023-06-04T02:38:54;99264.25;;;21.41;38.48
54122;BME280;40029;58.708;50.190;2023-06-04T02:41:26;99255.47;;;21.41;38.42
54122;BME280;40029;58.708;50.190;2023-06-04T02:43:58;99222.69;;;21.32;38.13
54122;BME280;40029;58.708;50.190;2023-06-04T02:46:29;99263.25;;;21.62;38.02
54122;BME280;40029;58.708;50.190;2023-06-04T02:49:00;99265.50;;;21.76;37.74
54122;BME280;40029;58.708;50.190;2023-06-04T02:51:50;99212.91;;;21.52;37.54
54122;BME280;40029;58.708;50.190;2023-06-04T02:54:22;99261.13;;;21.94;37.35
54122;BME280;40029;58.708;50.190;2023-06-04T02:56:53;99263.75;;;22.14;37.12
54122;BME280;40029;58.708;50.190;2023-06-04T02:59:24;99227.44;;;22.14;36.33
54122;BME280;40029;58.708;50.190;2023-06-04T03:02:15;99230.00;;;22.34;36.23
54122;BME280;40029;58.708;50.190;2023-06-04T03:04:47;99263.94;;;22.67;35.90
54122;BME280;40029;58.708;50.190;2023-06-04T03:07:18;99254.66;;;22.81;35.56
54122;BME280;40029;58.708;50.190;2023-06-04T03:09:51;99248.59;;;22.89;35.04
54122;BME280;40029;58.708;50.190;2023-06-04T03:12:22;99256.03;;;23.13;34.60
54122;BME280;40029;58.708;50.190;2023-06-04T03:14:53;99256.78;;;23.23;34.31
54122;BME280;40029;58.708;50.190;2023-06-04T03:17:25;99224.78;;;23.15;34.29
54122;BME280;40029;58.708;50.190;2023-06-04T03:19:57;99251.16;;;23.44;34.03
54122;BME280;40029;58.708;50.190;2023-06-04T03:22:28;99255.44;;;23.37;33.99
54122;BME280;40029;58.708;50.190;2023-06-04T03:25:01;99211.22;;;23.18;33.97
54122;BME280;40029;58.708;50.190;2023-06-04T03:27:38;99240.75;;;23.15;34.03
54122;BME280;40029;58.708;50.190;2023-06-04T03:30:10;99222.91;;;23.25;33.84
54122;BME280;40029;58.708;50.190;2023-06-04T03:33:02;99263.47;;;23.45;33.65
54122;BME280;40029;58.708;50.190;2023-06-04T03:35:33;99228.16;;;23.35;33.93
54122;BME280;40029;58.708;50.190;2023-06-04T03:38:05;99234.16;;;23.37;34.10
54122;BME280;40029;58.708;50.190;2023-06-04T03:40:37;99213.19;;;23.34;33.82
54122;BME280;40029;58.708;50.190;2023-06-04T03:43:10;99216.91;;;23.41;33.84
54122;BME280;40029;58.708;50.190;2023-06-04T03:45:41;99223.19;;;23.40;33.77
54122;BME280;40029;58.708;50.190;2023-06-04T03:48:14;99229.13;;;23.52;33.47
54122;BME280;40029;58.708;50.190;2023-06-04T03:51:03;99229.94;;;23.70;33.50
54122;BME280;40029;58.708;50.190;2023-06-04T03:53:35;99230.88;;;23.87;33.58
54122;BME280;40029;58.708;50.190;2023-06-04T03:56:06;99271.59;;;24.31;32.90
54122;BME280;40029;58.708;50.190;2023-06-04T03:58:38;99276.88;;;24.49;32.66
54122;BME280;40029;58.708;50.190;2023-06-04T04:01:10;99235.56;;;24.45;32.42
54122;BME280;40029;58.708;50.190;2023-06-04T04:03:41;99274.78;;;24.69;32.29
54122;BME280;40029;58.708;50.190;2023-06-04T04:06:15;99286.28;;;24.69;32.09
54122;BME280;40029;58.708;50.190;2023-06-04T04:08:47;99290.44;;;24.72;32.56
54122;BME280;40029;58.708;50.190;2023-06-04T04:11:37;99270.25;;;24.61;32.89
54122;BME280;40029;58.708;50.190;2023-06-04T04:14:09;99290.25;;;24.65;33.35
54122;BME280;40029;58.708;50.190;2023-06-04T04:16:41;99293.69;;;24.50;33.42
54122;BME280;40029;58.708;50.190;2023-06-04T04:19:13;99308.78;;;24.41;33.82
54122;BME280;40029;58.708;50.190;2023-06-04T04:22:03;99258.78;;;24.01;34.27
54122;BME280;40029;58.708;50.190;2023-06-04T04:24:35;99281.56;;;24.03;34.69
54122;BME280;40029;58.708;50.190;2023-06-04T04:27:08;99260.38;;;23.93;34.69
54122;BME280;40029;58.708;50.190;2023-06-04T04:30:00;99240.88;;;23.85;35.09
54122;BME280;40029;58.708;50.190;2023-06-04T04:32:36;99259.69;;;23.91;34.85
54122;BME280;40029;58.708;50.190;2023-06-04T04:35:11;99243.84;;;23.82;34.73
54122;BME280;40029;58.708;50.190;2023-06-04T04:37:45;99248.22;;;23.91;34.85
54122;BME280;40029;58.708;50.190;2023-06-04T04:40:16;99259.44;;;24.03;34.91
54122;BME280;40029;58.708;50.190;2023-06-04T04:42:51;99263.19;;;24.18;34.91
54122;BME280;40029;58.708;50.190;2023-06-04T04:45:24;99262.09;;;24.29;34.57
54122;BME280;40029;58.708;50.190;2023-06-04T04:47:58;99223.63;;;24.23;34.14
54122;BME280;40029;58.708;50.190;2023-06-04T04:50:29;99200.41;;;24.07;34.29
54122;BME280;40029;58.708;50.190;2023-06-04T04:53:03;99236.22;;;24.39;34.06
54122;BME280;40029;58.708;50.190;2023-06-04T04:55:36;99260.41;;;24.54;33.91
54122;BME280;40029;58.708;50.190;2023-06-04T04:58:07;99210.84;;;24.27;33.29
54122;BME280;40029;58.708;50.190;2023-06-04T05:00:57;99251.38;;;24.47;32.71
54122;BME280;40029;58.708;50.190;2023-06-04T05:03:28;99255.81;;;24.64;32.25
54122;BME280;40029;58.708;50.190;2023-06-04T05:06:00;99243.13;;;24.66;32.21
54122;BME280;40029;58.708;50.190;2023-06-04T05:08:31;99245.31;;;24.71;31.76
54122;BME280;40029;58.708;50.190;2023-06-04T05:11:21;99222.28;;;24.53;31.80
54122;BME280;40029;58.708;50.190;2023-06-04T05:13:53;99208.94;;;24.45;31.78
54122;BME280;40029;58.708;50.190;2023-06-04T05:16:24;99262.38;;;24.86;31.17
54122;BME280;40029;58.708;50.190;2023-06-04T05:18:59;99253.50;;;25.28;30.63
54122;BME280;40029;58.708;50.190;2023-06-04T05:21:36;99230.97;;;25.22;31.14
54122;BME280;40029;58.708;50.190;2023-06-04T05:24:10;99249.16;;;25.43;30.88
54122;BME280;40029;58.708;50.190;2023-06-04T05:26:43;99292.16;;;25.48;30.78
54122;BME280;40029;58.708;50.190;2023-06-04T05:29:33;99283.84;;;25.59;30.62
54122;BME280;40029;58.708;50.190;2023-06-04T05:32:04;99257.16;;;25.43;31.26
54122;BME280;40029;58.708;50.190;2023-06-04T05:34:36;99234.66;;;25.29;31.01
54122;BME280;40029;58.708;50.190;2023-06-04T05:37:08;99245.66;;;25.34;31.29
54122;BME280;40029;58.708;50.190;2023-06-04T05:39:40;99284.56;;;25.03;31.34
54122;BME280;40029;58.708;50.190;2023-06-04T05:42:18;99293.50;;;25.28;31.33
54122;BME280;40029;58.708;50.190;2023-06-04T05:44:50;99298.13;;;25.17;31.32
54122;BME280;40029;58.708;50.190;2023-06-04T05:47:24;99270.75;;;25.07;31.38
54122;BME280;40029;58.708;50.190;2023-06-04T05:49:57;99270.94;;;25.14;31.21
54122;BME280;40029;58.708;50.190;2023-06-04T05:52:28;99256.97;;;25.20;31.32
54122;BME280;40029;58.708;50.190;2023-06-04T05:55:00;99284.16;;;25.48;31.01
54122;BME280;40029;58.708;50.190;2023-06-04T05:57:31;99297.19;;;25.67;31.00
54122;BME280;40029;58.708;50.190;2023-06-04T06:00:03;99249.16;;;25.51;30.91
54122;BME280;40029;58.708;50.190;2023-06-04T06:02:45;99240.50;;;25.57;30.47
54122;BME280;40029;58.708;50.190;2023-06-04T06:05:32;99273.84;;;25.94;30.50
54122;BME280;40029;58.708;50.190;2023-06-04T06:08:04;99266.84;;;26.01;30.40
54122;BME280;40029;58.708;50.190;2023-06-04T06:10:36;99259.44;;;26.20;29.92
54122;BME280;40029;58.708;50.190;2023-06-04T06:13:08;99245.94;;;26.21;29.92
54122;BME280;40029;58.708;50.190;2023-06-04T06:15:39;99249.75;;;26.27;29.45
54122;BME280;40029;58.708;50.190;2023-06-04T06:18:10;99280.13;;;26.26;28.90
54122;BME280;40029;58.708;50.190;2023-06-04T06:20:42;99308.69;;;26.17;28.56
54122;BME280;40029;58.708;50.190;2023-06-04T06:23:13;99277.34;;;25.95;28.36
54122;BME280;40029;58.708;50.190;2023-06-04T06:25:48;99321.00;;;26.34;27.95
54122;BME280;40029;58.708;50.190;2023-06-04T06:28:27;99317.22;;;26.12;28.86
54122;BME280;40029;58.708;50.190;2023-06-04T06:31:00;99320.03;;;26.03;29.23
54122;BME280;40029;58.708;50.190;2023-06-04T06:33:31;99341.75;;;25.91;29.56
54122;BME280;40029;58.708;50.190;2023-06-04T06:36:03;99333.03;;;25.65;29.81
54122;BME280;40029;58.708;50.190;2023-06-04T06:38:34;99338.53;;;25.63;30.18
54122;BME280;40029;58.708;50.190;2023-06-04T06:41:06;99335.50;;;25.42;30.12
54122;BME280;40029;58.708;50.190;2023-06-04T06:43:37;99338.41;;;25.14;30.73
54122;BME280;40029;58.708;50.190;2023-06-04T06:46:09;99349.44;;;25.11;30.66
54122;BME280;40029;58.708;50.190;2023-06-04T06:48:40;99304.31;;;24.50;30.53
54122;BME280;40029;58.708;50.190;2023-06-04T06:51:16;99313.84;;;24.52;30.48
54122;BME280;40029;58.708;50.190;2023-06-04T06:54:09;99275.75;;;24.08;29.82
54122;BME280;40029;58.708;50.190;2023-06-04T06:56:40;99325.44;;;24.43;29.41
54122;BME280;40029;58.708;50.190;2023-06-04T06:59:12;99306.13;;;24.41;29.96
54122;BME280;40029;58.708;50.190;2023-06-04T07:01:43;99308.03;;;24.31;29.96
54122;BME280;40029;58.708;50.190;2023-06-04T07:04:15;99331.53;;;24.35;30.09
54122;BME280;40029;58.708;50.190;2023-06-04T07:06:47;99313.19;;;24.06;30.69
54122;BME280;40029;58.708;50.190;2023-06-04T07:09:18;99310.94;;;23.93;30.93
54122;BME280;40029;58.708;50.190;2023-06-04T07:11:49;99314.59;;;23.92;31.47
54122;BME280;40029;58.708;50.190;2023-06-04T07:14:20;99307.59;;;23.74;32.25
54122;BME280;40029;58.708;50.190;2023-06-04T07:16:52;99340.81;;;23.69;32.68
54122;BME280;40029;58.708;50.190;2023-06-04T07:19:23;99347.31;;;23.57;33.20
54122;BME280;40029;58.708;50.190;2023-06-04T07:21:54;99361.63;;;23.56;33.99
54122;BME280;40029;58.708;50.190;2023-06-04T07:24:28;99372.78;;;23.60;34.22
54122;BME280;40029;58.708;50.190;2023-06-04T07:26:59;99374.53;;;23.51;35.02
54122;BME280;40029;58.708;50.190;2023-06-04T07:29:31;99354.47;;;23.39;35.55
54122;BME280;40029;58.708;50.190;2023-06-04T07:32:02;99365.06;;;23.21;36.99
54122;BME280;40029;58.708;50.190;2023-06-04T07:34:33;99358.66;;;23.14;37.18
54122;BME280;40029;58.708;50.190;2023-06-04T07:37:04;99330.75;;;22.73;38.28
54122;BME280;40029;58.708;50.190;2023-06-04T07:39:36;99314.22;;;22.41;39.32
54122;BME280;40029;58.708;50.190;2023-06-04T07:42:07;99372.38;;;22.72;40.37
54122;BME280;40029;58.708;50.190;2023-06-04T07:44:38;99308.03;;;22.13;40.86
54122;BME280;40029;58.708;50.190;2023-06-04T07:47:09;99354.06;;;22.32;41.25
54122;BME280;40029;58.708;50.190;2023-06-04T07:49:41;99386.00;;;22.59;41.83
54122;BME280;40029;58.708;50.190;2023-06-04T07:52:12;99362.09;;;22.59;41.50
54122;BME280;40029;58.708;50.190;2023-06-04T07:54:45;99391.81;;;22.82;41.35
54122;BME280;40029;58.708;50.190;2023-06-04T07:57:16;99397.84;;;23.12;41.16
54122;BME280;40029;58.708;50.190;2023-06-04T07:59:47;99396.56;;;23.16;41.26
54122;BME280;40029;58.708;50.190;2023-06-04T08:02:18;99376.94;;;22.89;41.00
54122;BME280;40029;58.708;50.190;2023-06-04T08:04:50;99406.72;;;23.30;41.28
54122;BME280;40029;58.708;50.190;2023-06-04T08:07:40;99384.38;;;22.86;40.73
54122;BME280;40029;58.708;50.190;2023-06-04T08:10:12;99413.94;;;23.10;40.24
54122;BME280;40029;58.708;50.190;2023-06-04T08:12:43;99375.69;;;22.46;40.37
54122;BME280;40029;58.708;50.190;2023-06-04T08:15:14;99418.56;;;22.61;40.37
54122;BME280;40029;58.708;50.190;2023-06-04T08:18:06;99421.09;;;22.53;40.17
54122;BME280;40029;58.708;50.190;2023-06-04T08:20:43;99393.06;;;22.21;40.59
54122;BME280;40029;58.708;50.190;2023-06-04T08:23:47;99394.44;;;22.26;40.56
54122;BME280;40029;58.708;50.190;2023-06-04T08:26:38;99397.81;;;22.18;40.90
54122;BME280;40029;58.708;50.190;2023-06-04T08:29:30;99414.84;;;22.25;41.57
54122;BME280;40029;58.708;50.190;2023-06-04T08:32:01;99437.75;;;21.97;43.31
54122;BME280;40029;58.708;50.190;2023-06-04T08:34:54;99426.69;;;21.82;43.40
54122;BME280;40029;58.708;50.190;2023-06-04T08:37:26;99406.47;;;21.31;44.84
54122;BME280;40029;58.708;50.190;2023-06-04T08:39:57;99414.50;;;21.10;45.38
54122;BME280;40029;58.708;50.190;2023-06-04T08:42:30;99413.81;;;21.08;45.36
54122;BME280;40029;58.708;50.190;2023-06-04T08:45:02;99406.47;;;20.91;45.67
54122;BME280;40029;58.708;50.190;2023-06-04T08:47:36;99446.97;;;21.03;45.92
54122;BME280;40029;58.708;50.190;2023-06-04T08:50:26;99428.75;;;20.88;46.20
54122;BME280;40029;58.708;50.190;2023-06-04T08:52:58;99444.38;;;20.61;46.88
54122;BME280;40029;58.708;50.190;2023-06-04T08:55:29;99479.63;;;20.82;46.51
54122;BME280;40029;58.708;50.190;2023-06-04T08:58:01;99498.41;;;20.47;48.88
54122;BME280;40029;58.708;50.190;2023-06-04T09:00:33;99491.13;;;19.64;50.21
54122;BME280;40029;58.708;50.190;2023-06-04T09:03:04;99558.75;;;19.33;53.18
54122;BME280;40029;58.708;50.190;2023-06-04T09:05:36;99477.19;;;18.59;55.80
54122;BME280;40029;58.708;50.190;2023-06-04T09:08:08;99562.47;;;18.84;56.06
54122;BME280;40029;58.708;50.190;2023-06-04T09:10:41;99582.97;;;18.56;57.37
54122;BME280;40029;58.708;50.190;2023-06-04T09:13:13;99546.78;;;18.34;58.22
54122;BME280;40029;58.708;50.190;2023-06-04T09:15:46;99528.97;;;18.14;58.19
54122;BME280;40029;58.708;50.190;2023-06-04T09:18:36;99547.56;;;17.99;58.64
54122;BME280;40029;58.708;50.190;2023-06-04T09:21:08;99575.56;;;18.13;58.50
54122;BME280;40029;58.708;50.190;2023-06-04T09:23:57;99540.44;;;17.89;58.81
54122;BME280;40029;58.708;50.190;2023-06-04T09:26:29;99548.34;;;18.13;58.21
54122;BME280;40029;58.708;50.190;2023-06-04T09:29:00;99543.03;;;18.02;58.40
54122;BME280;40029;58.708;50.190;2023-06-04T09:31:31;99582.66;;;18.37;57.19
54122;BME280;40029;58.708;50.190;2023-06-04T09:34:08;99576.69;;;18.46;57.16
54122;BME280;40029;58.708;50.190;2023-06-04T09:36:58;99542.34;;;18.35;57.21
54122;BME280;40029;58.708;50.190;2023-06-04T09:39:29;99547.88;;;18.32;57.21
54122;BME280;40029;58.708;50.190;2023-06-04T09:42:02;99542.59;;;18.32;56.60
54122;BME280;40029;58.708;50.190;2023-06-04T09:44:43;99578.16;;;18.50;57.45
54122;BME280;40029;58.708;50.190;2023-06-04T09:47:16;99581.88;;;18.23;56.80
54122;BME280;40029;58.708;50.190;2023-06-04T09:49:50;99607.06;;;18.52;57.51
54122;BME280;40029;58.708;50.190;2023-06-04T09:52:32;99565.81;;;18.27;56.42
54122;BME280;40029;58.708;50.190;2023-06-04T09:55:15;99586.59;;;18.31;56.90
54122;BME280;40029;58.708;50.190;2023-06-04T09:57:49;99650.22;;;18.51;55.62
54122;BME280;40029;58.708;50.190;2023-06-04T10:00:23;99668.03;;;18.36;56.65
54122;BME280;40029;58.708;50.190;2023-06-04T10:03:02;99687.56;;;17.69;53.89
54122;BME280;40029;58.708;50.190;2023-06-04T10:05:34;99660.63;;;17.01;55.58
54122;BME280;40029;58.708;50.190;2023-06-04T10:08:09;99702.59;;;17.16;52.70
54122;BME280;40029;58.708;50.190;2023-06-04T10:10:43;99655.38;;;16.73;52.34
54122;BME280;40029;58.708;50.190;2023-06-04T10:13:18;99704.44;;;16.74;53.60
54122;BME280;40029;58.708;50.190;2023-06-04T10:15:50;99715.00;;;16.46;51.76
54122;BME280;40029;58.708;50.190;2023-06-04T10:18:21;99676.84;;;16.12;53.44
54122;BME280;40029;58.708;50.190;2023-06-04T10:20:55;99672.97;;;16.32;53.31
54122;BME280;40029;58.708;50.190;2023-06-04T10:23:27;99685.34;;;16.44;53.25
54122;BME280;40029;58.708;50.190;2023-06-04T10:26:00;99651.75;;;16.20;52.99
54122;BME280;40029;58.708;50.190;2023-06-04T10:28:33;99707.06;;;16.60;52.76
54122;BME280;40029;58.708;50.190;2023-06-04T10:31:06;99676.72;;;16.13;53.37
54122;BME280;40029;58.708;50.190;2023-06-04T10:33:38;99697.41;;;15.91;52.11
54122;BME280;40029;58.708;50.190;2023-06-04T10:36:20;99720.47;;;16.29;51.73
54122;BME280;40029;58.708;50.190;2023-06-04T10:38:53;99697.53;;;15.59;52.40
54122;BME280;40029;58.708;50.190;2023-06-04T10:41:25;99751.41;;;15.66;51.72
54122;BME280;40029;58.708;50.190;2023-06-04T10:44:01;99736.50;;;15.67;51.80
54122;BME280;40029;58.708;50.190;2023-06-04T10:46:39;99769.38;;;15.58;52.45
54122;BME280;40029;58.708;50.190;2023-06-04T10:49:32;99735.56;;;15.38;52.30
54122;BME280;40029;58.708;50.190;2023-06-04T10:52:10;99771.97;;;15.44;51.19
54122;BME280;40029;58.708;50.190;2023-06-04T10:54:42;99730.22;;;15.09;50.16
54122;BME280;40029;58.708;50.190;2023-06-04T10:57:17;99767.69;;;15.11;50.80
54122;BME280;40029;58.708;50.190;2023-06-04T10:59:59;99719.16;;;14.72;50.09
54122;BME280;40029;58.708;50.190;2023-06-04T11:02:31;99783.38;;;14.97;50.75
54122;BME280;40029;58.708;50.190;2023-06-04T11:05:03;99757.03;;;14.98;51.19
54122;BME280;40029;58.708;50.190;2023-06-04T11:07:43;99786.31;;;15.07;52.07
54122;BME280;40029;58.708;50.190;2023-06-04T11:10:16;99765.75;;;14.99;52.04
54122;BME280;40029;58.708;50.190;2023-06-04T11:12:50;99802.66;;;15.28;52.27
54122;BME280;40029;58.708;50.190;2023-06-04T11:15:23;99792.44;;;14.91;52.57
54122;BME280;40029;58.708;50.190;2023-06-04T11:17:56;99800.63;;;14.69;52.98
54122;BME280;40029;58.708;50.190;2023-06-04T11:20:30;99858.50;;;14.66;53.77
54122;BME280;40029;58.708;50.190;2023-06-04T11:23:01;99794.88;;;14.30;54.53
54122;BME280;40029;58.708;50.190;2023-06-04T11:25:34;99839.97;;;14.54;54.20
54122;BME280;40029;58.708;50.190;2023-06-04T11:28:24;99832.94;;;14.54;55.12
54122;BME280;40029;58.708;50.190;2023-06-04T11:31:14;99831.16;;;14.37;55.79
54122;BME280;40029;58.708;50.190;2023-06-04T11:33:46;99859.66;;;14.43;56.03
54122;BME280;40029;58.708;50.190;2023-06-04T11:36:25;99866.41;;;14.49;56.61
54122;BME280;40029;58.708;50.190;2023-06-04T11:38:59;99824.22;;;14.03;57.73
54122;BME280;40029;58.708;50.190;2023-06-04T11:41:32;99864.69;;;14.31;57.70
54122;BME280;40029;58.708;50.190;2023-06-04T11:44:05;99841.00;;;14.16;57.59
54122;BME280;40029;58.708;50.190;2023-06-04T11:46:43;99861.50;;;14.08;57.60
54122;BME280;40029;58.708;50.190;2023-06-04T11:49:15;99828.00;;;13.97;57.49
54122;BME280;40029;58.708;50.190;2023-06-04T11:51:51;99858.56;;;14.14;57.18
54122;BME280;40029;58.708;50.190;2023-06-04T11:54:23;99862.72;;;14.18;57.65
54122;BME280;40029;58.708;50.190;2023-06-04T11:56:54;99854.53;;;14.42;57.16
54122;BME280;40029;58.708;50.190;2023-06-04T11:59:25;99862.28;;;14.43;56.61
54122;BME280;40029;58.708;50.190;2023-06-04T12:01:57;99854.06;;;14.34;56.73
54122;BME280;40029;58.708;50.190;2023-06-04T12:04:30;99902.50;;;14.61;55.87
54122;BME280;40029;58.708;50.190;2023-06-04T12:07:04;99846.47;;;14.12;55.74
54122;BME280;40029;58.708;50.190;2023-06-04T12:09:37;99898.31;;;14.22;55.82
54122;BME280;40029;58.708;50.190;2023-06-04T12:12:11;99865.06;;;13.72;54.49
54122;BME280;40029;58.708;50.190;2023-06-04T12:14:43;99862.66;;;14.03;53.60
54122;BME280;40029;58.708;50.190;2023-06-04T12:17:15;99856.78;;;14.65;53.46
54122;BME280;40029;58.708;50.190;2023-06-04T12:19:48;99918.31;;;15.24;52.17
54122;BME280;40029;58.708;50.190;2023-06-04T12:22:19;99911.09;;;15.28;49.79
54122;BME280;40029;58.708;50.190;2023-06-04T12:24:55;99854.66;;;15.05;47.22
54122;BME280;40029;58.708;50.190;2023-06-04T12:27:28;99886.41;;;15.94;45.24
54122;BME280;40029;58.708;50.190;2023-06-04T12:30:04;99906.75;;;16.35;44.12
54122;BME280;40029;58.708;50.190;2023-06-04T12:32:38;99921.09;;;17.31;44.50
54122;BME280;40029;58.708;50.190;2023-06-04T12:35:28;99930.59;;;17.60;42.03
54122;BME280;40029;58.708;50.190;2023-06-04T12:38:03;99931.69;;;17.43;36.21
54122;BME280;40029;58.708;50.190;2023-06-04T12:40:34;99898.56;;;16.69;38.37
54122;BME280;40029;58.708;50.190;2023-06-04T12:43:24;99951.31;;;16.96;38.36
54122;BME280;40029;58.708;50.190;2023-06-04T12:45:57;99926.28;;;17.18;38.77
54122;BME280;40029;58.708;50.190;2023-06-04T12:48:28;99913.31;;;17.56;38.82
54122;BME280;40029;58.708;50.190;2023-06-04T12:50:59;99926.72;;;17.39;37.06
54122;BME280;40029;58.708;50.190;2023-06-04T12:53:30;99938.78;;;17.14;38.65
54122;BME280;40029;58.708;50.190;2023-06-04T12:56:02;99930.97;;;16.98;36.82
54122;BME280;40029;58.708;50.190;2023-06-04T12:58:34;99940.47;;;17.98;37.28
54122;BME280;40029;58.708;50.190;2023-06-04T13:01:05;99951.75;;;18.53;34.91
54122;BME280;40029;58.708;50.190;2023-06-04T13:03:37;99974.75;;;18.63;35.48
54122;BME280;40029;58.708;50.190;2023-06-04T13:06:09;99966.03;;;18.88;33.84
54122;BME280;40029;58.708;50.190;2023-06-04T13:08:40;99998.97;;;19.21;31.82
54122;BME280;40029;58.708;50.190;2023-06-04T13:11:12;99985.09;;;19.43;30.81
54122;BME280;40029;58.708;50.190;2023-06-04T13:13:44;100017.06;;;20.01;31.27
54122;BME280;40029;58.708;50.190;2023-06-04T13:16:15;99978.50;;;20.57;31.79
54122;BME280;40029;58.708;50.190;2023-06-04T13:18:46;100022.72;;;20.20;32.32
54122;BME280;40029;58.708;50.190;2023-06-04T13:21:17;100016.50;;;20.08;29.71
54122;BME280;40029;58.708;50.190;2023-06-04T13:24:09;100003.44;;;20.42;27.94
54122;BME280;40029;58.708;50.190;2023-06-04T13:26:41;100033.66;;;20.75;28.62
54122;BME280;40029;58.708;50.190;2023-06-04T13:29:13;99987.47;;;20.19;28.64
54122;BME280;40029;58.708;50.190;2023-06-04T13:31:47;100033.91;;;20.23;27.99
54122;BME280;40029;58.708;50.190;2023-06-04T13:34:18;99995.25;;;19.36;27.84